createdAt,value
2018-03-02T00:00:40.427Z,0
2018-03-02T00:01:50.380Z,0
2018-03-02T00:02:59.546Z,0
2018-03-02T00:04:09.509Z,0
2018-03-02T00:05:19.208Z,0
2018-03-02T00:06:28.905Z,0
2018-03-02T00:07:38.592Z,0
2018-03-02T00:08:48.281Z,0
2018-03-02T00:09:58.547Z,0
2018-03-02T00:11:08.235Z,0
2018-03-02T00:12:18.180Z,0
2018-03-02T00:13:28.123Z,0
2018-03-02T00:14:37.568Z,0
2018-03-02T00:15:47.253Z,0
2018-03-02T00:16:57.205Z,0
2018-03-02T00:18:06.374Z,0
2018-03-02T00:19:16.062Z,0
2018-03-02T00:20:25.770Z,0
2018-03-02T00:21:34.939Z,0
2018-03-02T00:22:44.425Z,0
2018-03-02T00:23:54.418Z,0
2018-03-02T00:25:04.102Z,0
2018-03-02T00:26:13.547Z,0
2018-03-02T00:27:22.986Z,0
2018-03-02T00:28:32.674Z,0
2018-03-02T00:29:42.624Z,0
2018-03-02T00:30:52.320Z,0
2018-03-02T00:32:02.261Z,0
2018-03-02T00:33:11.955Z,0
2018-03-02T00:34:21.653Z,0
2018-03-02T00:35:31.337Z,0
2018-03-02T00:36:40.508Z,0
2018-03-02T00:37:50.200Z,0
2018-03-02T00:38:59.899Z,0
2018-03-02T00:40:09.587Z,0
2018-03-02T00:41:19.544Z,0
2018-03-02T00:42:29.488Z,0
2018-03-02T00:43:39.179Z,0
2018-03-02T00:44:48.355Z,0
2018-03-02T00:45:58.059Z,0
2018-03-02T00:47:07.765Z,0
2018-03-02T00:48:17.797Z,0
2018-03-02T00:49:27.474Z,0
2018-03-02T00:50:37.434Z,0
2018-03-02T00:51:46.599Z,0
2018-03-02T00:52:56.282Z,0
2018-03-02T00:54:05.705Z,0
2018-03-02T00:55:15.132Z,0
2018-03-02T00:56:25.083Z,0
2018-03-02T00:57:34.507Z,0
2018-03-02T00:58:44.456Z,0
2018-03-02T00:59:54.421Z,0
2018-03-02T01:01:04.115Z,0
2018-03-02T01:02:14.066Z,0
2018-03-02T01:03:24.008Z,0
2018-03-02T01:04:34.207Z,0
2018-03-02T01:05:43.650Z,0
2018-03-02T01:06:53.340Z,0
2018-03-02T01:08:02.247Z,0
2018-03-02T01:09:11.949Z,0
2018-03-02T01:10:21.607Z,0
2018-03-02T01:11:31.568Z,0
2018-03-02T01:12:41.263Z,0
2018-03-02T01:13:50.964Z,0
2018-03-02T01:15:00.918Z,0
2018-03-02T01:16:10.877Z,0
2018-03-02T01:17:20.567Z,0
2018-03-02T01:18:30.510Z,0
2018-03-02T01:19:40.208Z,0
2018-03-02T01:20:50.150Z,0
2018-03-02T01:22:00.107Z,0
2018-03-02T01:23:10.070Z,0
2018-03-02T01:24:20.033Z,0
2018-03-02T01:25:29.990Z,0
2018-03-02T01:26:39.674Z,0
2018-03-02T01:27:49.615Z,0
2018-03-02T01:28:59.041Z,0
2018-03-02T01:30:08.466Z,0
2018-03-02T01:31:18.416Z,0
2018-03-02T01:32:28.348Z,0
2018-03-02T01:33:38.043Z,0
2018-03-02T01:34:47.485Z,0
2018-03-02T01:35:57.166Z,0
2018-03-02T01:37:06.852Z,0
2018-03-02T01:38:16.810Z,0
2018-03-02T01:39:26.756Z,0
2018-03-02T01:40:36.197Z,0
2018-03-02T01:41:46.157Z,0
2018-03-02T01:42:56.122Z,0
2018-03-02T01:44:05.559Z,0
2018-03-02T01:45:15.236Z,0
2018-03-02T01:46:25.166Z,0
2018-03-02T01:47:35.126Z,0
2018-03-02T01:48:45.077Z,0
2018-03-02T01:49:54.772Z,0
2018-03-02T01:51:04.454Z,0
2018-03-02T01:52:14.137Z,0
2018-03-02T01:53:24.134Z,0
2018-03-02T01:54:33.831Z,0
2018-03-02T01:55:43.517Z,0
2018-03-02T01:56:53.217Z,0
2018-03-02T01:58:03.178Z,0
2018-03-02T01:59:12.869Z,0
2018-03-02T02:00:22.558Z,0
2018-03-02T02:01:32.524Z,0
2018-03-02T02:02:42.480Z,0
2018-03-02T02:03:52.419Z,0
2018-03-02T02:05:02.402Z,0
2018-03-02T02:06:12.352Z,0
2018-03-02T02:07:22.294Z,0
2018-03-02T02:08:32.262Z,0
2018-03-02T02:09:41.935Z,0
2018-03-02T02:10:51.881Z,0
2018-03-02T02:12:01.565Z,0
2018-03-02T02:13:11.516Z,0
2018-03-02T02:14:20.950Z,0
2018-03-02T02:15:30.643Z,0
2018-03-02T02:16:40.322Z,0
2018-03-02T02:17:49.739Z,0
2018-03-02T02:18:59.169Z,0
2018-03-02T02:20:08.859Z,0
2018-03-02T02:21:18.548Z,0
2018-03-02T02:22:28.232Z,0
2018-03-02T02:23:37.654Z,0
2018-03-02T02:24:47.340Z,0
2018-03-02T02:25:57.290Z,0
2018-03-02T02:27:07.232Z,0
2018-03-02T02:28:16.942Z,0
2018-03-02T02:29:26.902Z,0
2018-03-02T02:30:36.855Z,0
2018-03-02T02:31:46.558Z,0
2018-03-02T02:32:56.251Z,0
2018-03-02T02:34:06.212Z,0
2018-03-02T02:35:15.906Z,0
2018-03-02T02:36:25.337Z,0
2018-03-02T02:37:35.371Z,0
2018-03-02T02:38:44.541Z,0
2018-03-02T02:39:54.509Z,0
2018-03-02T02:41:04.460Z,0
2018-03-02T02:42:14.413Z,0
2018-03-02T02:43:24.104Z,0
2018-03-02T02:44:34.063Z,0
2018-03-02T02:45:44.011Z,0
2018-03-02T02:46:53.961Z,0
2018-03-02T02:48:03.648Z,0
2018-03-02T02:49:13.348Z,0
2018-03-02T02:50:23.296Z,0
2018-03-02T02:51:33.238Z,0
2018-03-02T02:52:42.662Z,0
2018-03-02T02:53:52.404Z,0
2018-03-02T02:55:01.839Z,0
2018-03-02T02:56:11.540Z,0
2018-03-02T02:57:21.556Z,0
2018-03-02T02:58:31.281Z,0
2018-03-02T02:59:40.972Z,0
2018-03-02T03:00:50.683Z,0
2018-03-02T03:02:00.375Z,0
2018-03-02T03:03:10.403Z,0
2018-03-02T03:04:19.838Z,0
2018-03-02T03:05:29.792Z,0
2018-03-02T03:06:39.752Z,0
2018-03-02T03:07:49.693Z,0
2018-03-02T03:08:59.370Z,0
2018-03-02T03:10:09.312Z,0
2018-03-02T03:11:18.996Z,0
2018-03-02T03:12:28.685Z,0
2018-03-02T03:13:38.373Z,0
2018-03-02T03:14:48.324Z,0
2018-03-02T03:15:58.287Z,0
2018-03-02T03:17:08.224Z,0
2018-03-02T03:18:17.966Z,0
2018-03-02T03:19:27.909Z,0
2018-03-02T03:20:37.867Z,0
2018-03-02T03:21:47.548Z,0
2018-03-02T03:22:57.238Z,0
2018-03-02T03:24:06.658Z,0
2018-03-02T03:25:16.087Z,0
2018-03-02T03:26:26.052Z,0
2018-03-02T03:27:35.995Z,0
2018-03-02T03:28:46.201Z,0
2018-03-02T03:29:55.881Z,0
2018-03-02T03:31:05.838Z,0
2018-03-02T03:32:15.009Z,0
2018-03-02T03:33:24.690Z,0
2018-03-02T03:34:34.116Z,0
2018-03-02T03:35:43.838Z,0
2018-03-02T03:36:53.529Z,0
2018-03-02T03:38:02.965Z,0
2018-03-02T03:39:12.904Z,0
2018-03-02T03:40:22.842Z,0
2018-03-02T03:41:32.269Z,0
2018-03-02T03:42:41.955Z,0
2018-03-02T03:43:51.641Z,0
2018-03-02T03:45:01.327Z,0
2018-03-02T03:46:11.022Z,0
2018-03-02T03:47:20.966Z,0
2018-03-02T03:48:30.639Z,0
2018-03-02T03:49:40.325Z,0
2018-03-02T03:50:50.268Z,0
2018-03-02T03:51:59.958Z,0
2018-03-02T03:53:09.912Z,0
2018-03-02T03:54:19.900Z,0
2018-03-02T03:55:29.599Z,0
2018-03-02T03:56:39.283Z,0
2018-03-02T03:57:49.223Z,0
2018-03-02T03:58:59.165Z,0
2018-03-02T04:00:08.844Z,0
2018-03-02T04:01:18.782Z,0
2018-03-02T04:02:28.790Z,0
2018-03-02T04:03:38.764Z,0
2018-03-02T04:04:48.715Z,0
2018-03-02T04:05:58.660Z,0
2018-03-02T04:07:08.350Z,0
2018-03-02T04:08:18.402Z,0
2018-03-02T04:09:28.343Z,0
2018-03-02T04:10:38.280Z,0
2018-03-02T04:11:48.238Z,0
2018-03-02T04:12:58.188Z,0
2018-03-02T04:14:07.618Z,0
2018-03-02T04:15:17.042Z,0
2018-03-02T04:16:26.979Z,0
2018-03-02T04:17:36.403Z,0
2018-03-02T04:18:46.100Z,0
2018-03-02T04:19:56.052Z,0
2018-03-02T04:21:05.994Z,0
2018-03-02T04:22:15.427Z,0
2018-03-02T04:23:25.538Z,0
2018-03-02T04:24:35.478Z,0
2018-03-02T04:25:45.414Z,0
2018-03-02T04:26:55.365Z,0
2018-03-02T04:28:05.316Z,0
2018-03-02T04:29:15.006Z,0
2018-03-02T04:30:24.955Z,0
2018-03-02T04:31:35.164Z,0
2018-03-02T04:32:45.113Z,0
2018-03-02T04:33:54.787Z,0
2018-03-02T04:35:04.480Z,0
2018-03-02T04:36:14.440Z,0
2018-03-02T04:37:23.872Z,0
2018-03-02T04:38:33.306Z,0
2018-03-02T04:39:42.725Z,0
2018-03-02T04:40:52.408Z,0
2018-03-02T04:42:02.350Z,0
2018-03-02T04:43:12.298Z,0
2018-03-02T04:44:21.992Z,0
2018-03-02T04:45:31.677Z,0
2018-03-02T04:46:41.365Z,0
2018-03-02T04:47:51.057Z,0
2018-03-02T04:49:00.482Z,0
2018-03-02T04:50:10.176Z,0
2018-03-02T04:51:19.859Z,0
2018-03-02T04:52:29.811Z,0
2018-03-02T04:53:39.236Z,0
2018-03-02T04:54:49.168Z,0
2018-03-02T04:55:59.112Z,0
2018-03-02T04:57:09.054Z,0
2018-03-02T04:58:18.473Z,0
2018-03-02T04:59:27.401Z,0
2018-03-02T05:00:37.078Z,0
2018-03-02T05:01:47.027Z,0
2018-03-02T05:02:56.447Z,0
2018-03-02T05:04:06.392Z,0
2018-03-02T05:05:16.071Z,0
2018-03-02T05:06:25.748Z,0
2018-03-02T05:07:35.192Z,0
2018-03-02T05:08:44.627Z,0
2018-03-02T05:09:54.574Z,0
2018-03-02T05:11:04.270Z,0
2018-03-02T05:12:14.209Z,0
2018-03-02T05:13:24.145Z,0
2018-03-02T05:14:34.106Z,0
2018-03-02T05:15:43.805Z,0
2018-03-02T05:16:53.501Z,0
2018-03-02T05:18:03.185Z,0
2018-03-02T05:19:12.872Z,0
2018-03-02T05:20:22.840Z,0
2018-03-02T05:21:32.263Z,0
2018-03-02T05:22:42.217Z,0
2018-03-02T05:23:51.908Z,0
2018-03-02T05:25:01.863Z,0
2018-03-02T05:26:11.565Z,0
2018-03-02T05:27:21.538Z,0
2018-03-02T05:28:30.968Z,0
2018-03-02T05:29:40.927Z,0
2018-03-02T05:30:50.883Z,0
2018-03-02T05:32:00.566Z,0
2018-03-02T05:33:10.260Z,0
2018-03-02T05:34:19.967Z,0
2018-03-02T05:35:29.671Z,0
2018-03-02T05:36:39.633Z,0
2018-03-02T05:37:49.572Z,0
2018-03-02T05:38:58.748Z,0
2018-03-02T05:40:08.173Z,0
2018-03-02T05:41:18.127Z,5
2018-03-02T05:42:28.078Z,5
2018-03-02T05:43:37.778Z,5
2018-03-02T05:44:47.462Z,5
2018-03-02T05:45:57.452Z,5
2018-03-02T05:47:07.153Z,10
2018-03-02T05:48:16.849Z,10
2018-03-02T05:49:26.538Z,10
2018-03-02T05:50:36.243Z,10
2018-03-02T05:51:46.206Z,15
2018-03-02T05:52:55.948Z,15
2018-03-02T05:54:05.910Z,15
2018-03-02T05:55:15.598Z,20
2018-03-02T05:56:25.592Z,20
2018-03-02T05:57:35.532Z,20
2018-03-02T05:58:45.231Z,25
2018-03-02T05:59:55.193Z,25
2018-03-02T06:01:05.143Z,30
2018-03-02T06:02:15.084Z,30
2018-03-02T06:03:25.027Z,35
2018-03-02T06:04:34.712Z,35
2018-03-02T06:05:44.394Z,40
2018-03-02T06:06:54.344Z,40
2018-03-02T06:08:04.036Z,45
2018-03-02T06:09:13.476Z,45
2018-03-02T06:10:23.421Z,50
2018-03-02T06:11:33.119Z,50
2018-03-02T06:12:42.815Z,55
2018-03-02T06:13:52.506Z,55
2018-03-02T06:15:01.942Z,60
2018-03-02T06:16:11.635Z,60
2018-03-02T06:17:21.076Z,65
2018-03-02T06:18:31.013Z,70
2018-03-02T06:19:40.695Z,70
2018-03-02T06:20:50.125Z,75
2018-03-02T06:22:00.148Z,75
2018-03-02T06:23:09.328Z,75
2018-03-02T06:24:19.285Z,80
2018-03-02T06:25:28.717Z,85
2018-03-02T06:26:38.413Z,85
2018-03-02T06:27:48.368Z,90
2018-03-02T06:28:58.303Z,90
2018-03-02T06:30:07.996Z,95
2018-03-02T06:31:17.963Z,95
2018-03-02T06:32:27.664Z,100
2018-03-02T06:33:37.607Z,105
2018-03-02T06:34:47.556Z,105
2018-03-02T06:35:57.240Z,110
2018-03-02T06:37:07.253Z,115
2018-03-02T06:38:16.948Z,115
2018-03-02T06:39:26.645Z,115
2018-03-02T06:40:36.606Z,120
2018-03-02T06:41:46.289Z,125
2018-03-02T06:42:55.980Z,130
2018-03-02T06:44:05.666Z,130
2018-03-02T06:45:14.831Z,135
2018-03-02T06:46:24.545Z,135
2018-03-02T06:47:33.727Z,140
2018-03-02T06:48:43.697Z,145
2018-03-02T06:49:53.404Z,145
2018-03-02T06:51:02.886Z,150
2018-03-02T06:52:12.832Z,150
2018-03-02T06:53:22.837Z,155
2018-03-02T06:54:32.269Z,160
2018-03-02T06:55:42.257Z,165
2018-03-02T06:56:51.955Z,170
2018-03-02T06:58:01.908Z,165
2018-03-02T06:59:11.620Z,170
2018-03-02T07:00:21.586Z,170
2018-03-02T07:01:31.538Z,175
2018-03-02T07:02:41.246Z,180
2018-03-02T07:03:51.203Z,180
2018-03-02T07:05:00.892Z,185
2018-03-02T07:06:10.586Z,185
2018-03-02T07:07:20.540Z,190
2018-03-02T07:08:30.235Z,195
2018-03-02T07:09:40.003Z,195
2018-03-02T07:10:49.462Z,195
2018-03-02T07:11:59.166Z,200
2018-03-02T07:13:09.119Z,205
2018-03-02T07:14:19.074Z,205
2018-03-02T07:15:29.027Z,210
2018-03-02T07:16:38.739Z,210
2018-03-02T07:17:48.425Z,215
2018-03-02T07:18:58.124Z,220
2018-03-02T07:20:07.830Z,215
2018-03-02T07:21:17.791Z,225
2018-03-02T07:22:27.751Z,225
2018-03-02T07:23:37.462Z,230
2018-03-02T07:24:47.421Z,240
2018-03-02T07:25:56.867Z,230
2018-03-02T07:27:06.822Z,235
2018-03-02T07:28:16.540Z,240
2018-03-02T07:29:26.339Z,245
2018-03-02T07:30:36.358Z,250
2018-03-02T07:31:46.328Z,250
2018-03-02T07:32:56.050Z,255
2018-03-02T07:34:05.751Z,260
2018-03-02T07:35:15.461Z,265
2018-03-02T07:36:25.468Z,265
2018-03-02T07:37:35.170Z,265
2018-03-02T07:38:44.647Z,270
2018-03-02T07:39:54.614Z,265
2018-03-02T07:41:04.586Z,280
2018-03-02T07:42:14.566Z,275
2018-03-02T07:43:24.543Z,285
2018-03-02T07:44:34.261Z,280
2018-03-02T07:45:44.227Z,280
2018-03-02T07:46:53.673Z,285
2018-03-02T07:48:03.121Z,285
2018-03-02T07:49:13.089Z,285
2018-03-02T07:50:23.076Z,295
2018-03-02T07:51:32.772Z,295
2018-03-02T07:52:41.715Z,295
2018-03-02T07:53:51.427Z,320
2018-03-02T07:55:01.125Z,315
2018-03-02T07:56:10.823Z,310
2018-03-02T07:57:20.817Z,315
2018-03-02T07:58:30.523Z,310
2018-03-02T07:59:40.224Z,315
2018-03-02T08:00:50.184Z,315
2018-03-02T08:02:00.167Z,320
2018-03-02T08:03:10.110Z,335
2018-03-02T08:04:20.276Z,325
2018-03-02T08:05:29.922Z,325
2018-03-02T08:06:39.956Z,325
2018-03-02T08:07:49.930Z,345
2018-03-02T08:08:59.910Z,340
2018-03-02T08:10:09.626Z,345
2018-03-02T08:11:19.592Z,335
2018-03-02T08:12:29.041Z,355
2018-03-02T08:13:38.757Z,340
2018-03-02T08:14:48.741Z,355
2018-03-02T08:15:58.752Z,435
2018-03-02T08:17:08.720Z,490
2018-03-02T08:18:18.435Z,485
2018-03-02T08:19:28.130Z,435
2018-03-02T08:20:38.130Z,505
2018-03-02T08:21:47.318Z,515
2018-03-02T08:22:57.298Z,545
2018-03-02T08:24:07.250Z,545
2018-03-02T08:25:17.211Z,545
2018-03-02T08:26:26.978Z,565
2018-03-02T08:27:36.963Z,580
2018-03-02T08:28:46.408Z,565
2018-03-02T08:29:56.111Z,570
2018-03-02T08:31:05.808Z,585
2018-03-02T08:32:15.538Z,615
2018-03-02T08:33:25.507Z,625
2018-03-02T08:34:35.542Z,610
2018-03-02T08:35:45.492Z,590
2018-03-02T08:36:55.193Z,655
2018-03-02T08:38:05.183Z,670
2018-03-02T08:39:14.618Z,670
2018-03-02T08:40:25.013Z,680
2018-03-02T08:41:34.723Z,590
2018-03-02T08:42:44.684Z,495
2018-03-02T08:43:54.648Z,705
2018-03-02T08:45:04.391Z,705
2018-03-02T08:46:14.418Z,565
2018-03-02T08:47:24.411Z,700
2018-03-02T08:48:34.388Z,730
2018-03-02T08:49:44.364Z,670
2018-03-02T08:50:54.323Z,645
2018-03-02T08:52:04.283Z,715
2018-03-02T08:53:13.987Z,725
2018-03-02T08:54:23.958Z,695
2018-03-02T08:55:33.657Z,680
2018-03-02T08:56:43.118Z,745
2018-03-02T08:57:53.217Z,735
2018-03-02T08:59:02.684Z,745
2018-03-02T09:00:12.188Z,680
2018-03-02T09:01:21.903Z,765
2018-03-02T09:02:31.721Z,755
2018-03-02T09:03:41.694Z,760
2018-03-02T09:04:51.134Z,780
2018-03-02T09:06:00.832Z,755
2018-03-02T09:07:09.760Z,680
2018-03-02T09:08:19.746Z,775
2018-03-02T09:09:29.712Z,800
2018-03-02T09:10:39.675Z,820
2018-03-02T09:11:49.195Z,830
2018-03-02T09:12:59.143Z,830
2018-03-02T09:14:09.112Z,840
2018-03-02T09:15:18.820Z,840
2018-03-02T09:16:28.798Z,835
2018-03-02T09:17:38.516Z,850
2018-03-02T09:18:48.256Z,860
2018-03-02T09:19:58.243Z,885
2018-03-02T09:21:08.213Z,870
2018-03-02T09:22:17.907Z,905
2018-03-02T09:23:27.596Z,925
2018-03-02T09:24:37.056Z,920
2018-03-02T09:25:46.287Z,950
2018-03-02T09:26:55.995Z,945
2018-03-02T09:28:05.716Z,975
2018-03-02T09:29:15.159Z,1030
2018-03-02T09:30:24.615Z,1085
2018-03-02T09:31:34.620Z,1090
2018-03-02T09:32:44.600Z,1130
2018-03-02T09:33:54.308Z,1185
2018-03-02T09:35:04.270Z,1200
2018-03-02T09:36:14.238Z,1215
2018-03-02T09:37:24.390Z,1225
2018-03-02T09:38:34.091Z,1275
2018-03-02T09:39:44.081Z,1050
2018-03-02T09:40:53.534Z,1255
2018-03-02T09:42:03.237Z,1275
2018-03-02T09:43:12.940Z,1335
2018-03-02T09:44:22.646Z,1270
2018-03-02T09:45:32.628Z,1380
2018-03-02T09:46:42.081Z,1415
2018-03-02T09:47:52.044Z,1365
2018-03-02T09:49:02.003Z,1355
2018-03-02T09:50:11.973Z,1300
2018-03-02T09:51:21.681Z,1375
2018-03-02T09:52:31.838Z,1455
2018-03-02T09:53:41.828Z,1475
2018-03-02T09:54:51.280Z,1470
2018-03-02T09:56:01.027Z,1450
2018-03-02T09:57:10.764Z,1415
2018-03-02T09:58:20.726Z,1430
2018-03-02T09:59:30.232Z,1505
2018-03-02T10:00:39.976Z,1525
2018-03-02T10:01:49.937Z,1530
2018-03-02T10:02:59.938Z,1515
2018-03-02T10:04:09.651Z,1505
2018-03-02T10:05:19.613Z,1550
2018-03-02T10:06:29.342Z,1640
2018-03-02T10:07:39.039Z,1575
2018-03-02T10:08:49.000Z,1570
2018-03-02T10:09:58.955Z,1380
2018-03-02T10:11:08.928Z,1620
2018-03-02T10:12:18.390Z,1560
2018-03-02T10:13:28.354Z,1540
2018-03-02T10:14:38.328Z,1615
2018-03-02T10:15:48.311Z,1655
2018-03-02T10:16:58.282Z,1685
2018-03-02T10:18:08.248Z,1690
2018-03-02T10:19:18.226Z,1740
2018-03-02T10:20:28.182Z,1690
2018-03-02T10:21:37.904Z,1735
2018-03-02T10:22:47.614Z,1665
2018-03-02T10:23:57.332Z,1590
2018-03-02T10:25:07.298Z,1920
2018-03-02T10:26:17.274Z,1980
2018-03-02T10:27:26.971Z,1610
2018-03-02T10:28:36.693Z,1745
2018-03-02T10:29:46.672Z,1795
2018-03-02T10:30:56.382Z,1705
2018-03-02T10:32:05.834Z,1760
2018-03-02T10:33:15.806Z,1825
2018-03-02T10:34:25.523Z,1900
2018-03-02T10:35:34.451Z,1965
2018-03-02T10:36:44.155Z,1855
2018-03-02T10:37:53.886Z,1820
2018-03-02T10:39:03.332Z,1910
2018-03-02T10:40:13.310Z,1905
2018-03-02T10:41:23.277Z,1850
2018-03-02T10:42:33.244Z,1930
2018-03-02T10:43:43.217Z,1935
2018-03-02T10:44:53.196Z,1860
2018-03-02T10:46:02.658Z,1855
2018-03-02T10:47:12.108Z,1840
2018-03-02T10:48:21.824Z,1835
2018-03-02T10:49:31.537Z,1910
2018-03-02T10:50:41.250Z,1900
2018-03-02T10:51:50.988Z,1830
2018-03-02T10:53:00.961Z,1815
2018-03-02T10:54:10.683Z,1930
2018-03-02T10:55:20.643Z,1945
2018-03-02T10:56:30.350Z,1925
2018-03-02T10:57:40.068Z,1955
2018-03-02T10:58:50.019Z,2035
2018-03-02T10:59:59.734Z,2015
2018-03-02T11:01:09.178Z,2005
2018-03-02T11:02:19.154Z,1980
2018-03-02T11:03:29.129Z,1985
2018-03-02T11:04:39.105Z,1990
2018-03-02T11:05:48.822Z,2050
2018-03-02T11:06:58.803Z,2065
2018-03-02T11:08:08.321Z,2060
2018-03-02T11:09:18.283Z,2050
2018-03-02T11:10:28.254Z,2130
2018-03-02T11:11:38.246Z,2105
2018-03-02T11:12:47.975Z,2135
2018-03-02T11:13:57.189Z,2165
2018-03-02T11:15:06.644Z,2160
2018-03-02T11:16:16.351Z,2170
2018-03-02T11:17:26.366Z,2140
2018-03-02T11:18:36.074Z,2125
2018-03-02T11:19:46.074Z,2150
2018-03-02T11:20:55.558Z,2170
2018-03-02T11:22:05.593Z,2230
2018-03-02T11:23:15.313Z,2225
2018-03-02T11:24:25.048Z,2260
2018-03-02T11:25:34.796Z,2285
2018-03-02T11:26:44.500Z,2250
2018-03-02T11:27:54.489Z,2270
2018-03-02T11:29:04.245Z,2260
2018-03-02T11:30:14.300Z,2340
2018-03-02T11:31:24.015Z,2310
2018-03-02T11:32:33.779Z,2355
2018-03-02T11:33:43.760Z,2310
2018-03-02T11:34:53.471Z,2250
2018-03-02T11:36:03.188Z,2270
2018-03-02T11:37:12.660Z,2300
2018-03-02T11:38:22.640Z,2350
2018-03-02T11:39:32.373Z,2305
2018-03-02T11:40:42.183Z,2280
2018-03-02T11:41:52.162Z,2265
2018-03-02T11:43:01.351Z,2270
2018-03-02T11:44:11.069Z,2280
2018-03-02T11:45:20.895Z,2310
2018-03-02T11:46:30.866Z,2315
2018-03-02T11:47:40.335Z,2325
2018-03-02T11:48:50.054Z,2340
2018-03-02T11:50:00.016Z,2320
2018-03-02T11:51:09.490Z,2360
2018-03-02T11:52:19.256Z,2300
2018-03-02T11:53:29.256Z,2265
2018-03-02T11:54:38.989Z,2310
2018-03-02T11:55:48.602Z,2290
2018-03-02T11:56:58.644Z,2355
2018-03-02T11:58:08.615Z,2380
2018-03-02T11:59:18.581Z,2315
2018-03-02T12:00:28.032Z,2330
2018-03-02T12:01:37.754Z,2340
2018-03-02T12:02:47.473Z,2375
2018-03-02T12:03:57.447Z,2350
2018-03-02T12:05:07.177Z,2285
2018-03-02T12:06:16.895Z,2350
2018-03-02T12:07:26.610Z,2435
2018-03-02T12:08:36.067Z,2455
2018-03-02T12:09:46.068Z,2495
2018-03-02T12:10:56.042Z,2520
2018-03-02T12:12:06.044Z,2500
2018-03-02T12:13:16.043Z,2445
2018-03-02T12:14:25.766Z,2395
2018-03-02T12:15:35.731Z,2395
2018-03-02T12:16:45.754Z,2445
2018-03-02T12:17:55.243Z,2435
2018-03-02T12:19:04.956Z,2450
2018-03-02T12:20:14.924Z,2495
2018-03-02T12:21:24.625Z,2400
2018-03-02T12:22:34.432Z,2290
2018-03-02T12:23:44.488Z,2225
2018-03-02T12:24:54.210Z,2280
2018-03-02T12:26:04.188Z,2400
2018-03-02T12:27:14.163Z,2420
2018-03-02T12:28:23.948Z,2425
2018-03-02T12:29:33.936Z,2410
2018-03-02T12:30:43.644Z,2325
2018-03-02T12:31:53.096Z,2395
2018-03-02T12:33:03.079Z,2350
2018-03-02T12:34:12.781Z,2070
2018-03-02T12:35:22.226Z,1910
2018-03-02T12:36:32.196Z,1955
2018-03-02T12:37:41.970Z,2240
2018-03-02T12:38:51.726Z,2345
2018-03-02T12:40:00.930Z,2305
2018-03-02T12:41:10.638Z,2350
2018-03-02T12:42:20.082Z,2405
2018-03-02T12:43:30.051Z,2415
2018-03-02T12:44:39.726Z,2420
2018-03-02T12:45:49.439Z,2585
2018-03-02T12:46:58.372Z,2635
2018-03-02T12:48:08.131Z,2530
2018-03-02T12:49:18.561Z,2370
2018-03-02T12:50:28.268Z,2230
2018-03-02T12:51:37.993Z,2230
2018-03-02T12:52:47.446Z,2325
2018-03-02T12:53:56.898Z,2385
2018-03-02T12:55:06.444Z,2395
2018-03-02T12:56:16.425Z,2365
2018-03-02T12:57:26.136Z,2330
2018-03-02T12:58:35.609Z,2300
2018-03-02T12:59:45.057Z,2280
2018-03-02T13:00:55.030Z,2230
2018-03-02T13:02:04.491Z,2300
2018-03-02T13:03:14.448Z,2395
2018-03-02T13:04:24.152Z,2315
2018-03-02T13:05:33.859Z,2305
2018-03-02T13:06:43.833Z,2325
2018-03-02T13:07:53.861Z,2410
2018-03-02T13:09:03.860Z,2380
2018-03-02T13:10:13.828Z,2370
2018-03-02T13:11:23.787Z,2355
2018-03-02T13:12:33.764Z,2300
2018-03-02T13:13:43.732Z,2275
2018-03-02T13:14:53.456Z,2250
2018-03-02T13:16:03.485Z,2235
2018-03-02T13:17:13.232Z,2335
2018-03-02T13:18:23.240Z,2220
2018-03-02T13:19:32.946Z,2175
2018-03-02T13:20:42.659Z,2200
2018-03-02T13:21:52.634Z,2210
2018-03-02T13:23:02.634Z,2245
2018-03-02T13:24:12.618Z,2175
2018-03-02T13:25:22.056Z,2235
2018-03-02T13:26:31.534Z,2325
2018-03-02T13:27:41.498Z,2230
2018-03-02T13:28:51.222Z,2150
2018-03-02T13:30:01.203Z,2105
2018-03-02T13:31:11.446Z,2170
2018-03-02T13:32:20.896Z,2105
2018-03-02T13:33:30.338Z,2040
2018-03-02T13:34:40.298Z,2075
2018-03-02T13:35:50.030Z,2100
2018-03-02T13:36:59.499Z,2135
2018-03-02T13:38:09.472Z,2345
2018-03-02T13:39:18.965Z,2275
2018-03-02T13:40:28.947Z,2190
2018-03-02T13:41:38.410Z,2145
2018-03-02T13:42:48.456Z,2040
2018-03-02T13:43:58.166Z,1895
2018-03-02T13:45:08.143Z,1875
2018-03-02T13:46:18.157Z,1900
2018-03-02T13:47:28.121Z,1955
2018-03-02T13:48:37.579Z,2010
2018-03-02T13:49:47.546Z,2020
2018-03-02T13:50:56.992Z,1950
2018-03-02T13:52:06.704Z,1845
2018-03-02T13:53:16.406Z,1840
2018-03-02T13:54:26.401Z,1760
2018-03-02T13:55:36.114Z,1760
2018-03-02T13:56:46.082Z,1855
2018-03-02T13:57:55.791Z,1940
2018-03-02T13:59:05.511Z,1935
2018-03-02T14:00:14.964Z,1870
2018-03-02T14:01:24.464Z,1910
2018-03-02T14:02:34.167Z,1955
2018-03-02T14:03:44.144Z,1950
2018-03-02T14:04:53.613Z,1980
2018-03-02T14:06:03.316Z,1985
2018-03-02T14:07:13.274Z,1865
2018-03-02T14:08:23.240Z,1840
2018-03-02T14:09:33.274Z,1835
2018-03-02T14:10:42.721Z,1740
2018-03-02T14:11:51.930Z,1660
2018-03-02T14:13:01.903Z,1710
2018-03-02T14:14:11.618Z,1800
2018-03-02T14:15:21.585Z,1815
2018-03-02T14:16:31.294Z,1745
2018-03-02T14:17:40.740Z,1695
2018-03-02T14:18:50.717Z,1705
2018-03-02T14:20:00.713Z,1715
2018-03-02T14:21:10.428Z,1740
2018-03-02T14:22:20.417Z,1730
2018-03-02T14:23:30.388Z,1720
2018-03-02T14:24:40.357Z,1690
2018-03-02T14:25:50.067Z,1705
2018-03-02T14:26:59.888Z,1690
2018-03-02T14:28:09.611Z,1680
2018-03-02T14:29:19.371Z,1645
2018-03-02T14:30:28.840Z,1655
2018-03-02T14:31:38.817Z,1655
2018-03-02T14:32:48.525Z,1655
2018-03-02T14:33:58.230Z,1625
2018-03-02T14:35:08.199Z,1635
2018-03-02T14:36:18.179Z,1580
2018-03-02T14:37:27.892Z,1510
2018-03-02T14:38:37.872Z,1485
2018-03-02T14:39:47.844Z,1490
2018-03-02T14:40:57.296Z,1435
2018-03-02T14:42:06.997Z,1405
2018-03-02T14:43:16.177Z,1530
2018-03-02T14:44:25.883Z,1560
2018-03-02T14:45:35.331Z,1445
2018-03-02T14:46:45.293Z,1450
2018-03-02T14:47:54.998Z,1420
2018-03-02T14:49:04.986Z,1365
2018-03-02T14:50:14.703Z,1355
2018-03-02T14:51:24.423Z,1345
2018-03-02T14:52:34.130Z,1350
2018-03-02T14:53:43.848Z,1340
2018-03-02T14:54:53.808Z,1335
2018-03-02T14:56:03.787Z,1325
2018-03-02T14:57:13.838Z,1290
2018-03-02T14:58:23.813Z,1290
2018-03-02T14:59:33.784Z,1285
2018-03-02T15:00:43.507Z,1250
2018-03-02T15:01:53.482Z,1205
2018-03-02T15:03:03.195Z,1170
2018-03-02T15:04:12.911Z,1150
2018-03-02T15:05:22.889Z,1120
2018-03-02T15:06:32.648Z,1080
2018-03-02T15:07:42.492Z,1080
2018-03-02T15:08:52.483Z,1090
2018-03-02T15:10:02.441Z,1070
2018-03-02T15:11:12.431Z,1035
2018-03-02T15:12:22.152Z,1015
2018-03-02T15:13:31.856Z,980
2018-03-02T15:14:41.834Z,920
2018-03-02T15:15:51.788Z,925
2018-03-02T15:17:01.759Z,975
2018-03-02T15:18:11.744Z,995
2018-03-02T15:19:21.184Z,985
2018-03-02T15:20:31.148Z,960
2018-03-02T15:21:40.862Z,935
2018-03-02T15:22:50.570Z,895
2018-03-02T15:23:59.755Z,885
2018-03-02T15:25:09.484Z,855
2018-03-02T15:26:19.477Z,825
2018-03-02T15:27:29.449Z,800
2018-03-02T15:28:39.418Z,780
2018-03-02T15:29:49.122Z,755
2018-03-02T15:30:58.825Z,750
2018-03-02T15:32:08.539Z,740
2018-03-02T15:33:18.247Z,720
2018-03-02T15:34:27.956Z,695
2018-03-02T15:35:37.148Z,675
2018-03-02T15:36:46.592Z,645
2018-03-02T15:37:56.293Z,615
2018-03-02T15:39:06.272Z,645
2018-03-02T15:40:16.004Z,705
2018-03-02T15:41:26.040Z,600
2018-03-02T15:42:36.004Z,545
2018-03-02T15:43:45.997Z,540
2018-03-02T15:44:55.966Z,535
2018-03-02T15:46:05.956Z,530
2018-03-02T15:47:15.932Z,520
2018-03-02T15:48:25.895Z,490
2018-03-02T15:49:35.961Z,475
2018-03-02T15:50:45.684Z,455
2018-03-02T15:51:55.646Z,430
2018-03-02T15:53:05.337Z,410
2018-03-02T15:54:15.307Z,405
2018-03-02T15:55:24.755Z,390
2018-03-02T15:56:34.725Z,370
2018-03-02T15:57:44.435Z,355
2018-03-02T15:58:54.138Z,345
2018-03-02T16:00:03.847Z,335
2018-03-02T16:01:13.825Z,320
2018-03-02T16:02:23.529Z,310
2018-03-02T16:03:33.496Z,290
2018-03-02T16:04:43.222Z,275
2018-03-02T16:05:53.187Z,275
2018-03-02T16:07:03.187Z,260
2018-03-02T16:08:13.148Z,245
2018-03-02T16:09:23.117Z,230
2018-03-02T16:10:33.080Z,215
2018-03-02T16:11:43.049Z,210
2018-03-02T16:12:53.036Z,195
2018-03-02T16:14:03.000Z,185